Airfield :
LOGIN :

Register | Disclaimer

   EN    FR    IT 

 










Legend :    VFR   Marginal VFR   IFR   Intensive IFR   Very Intensive IFR
Visi :
Ceiling :
>= 8 km
>= 3000ft
5 to 8 km
1000 to 3000 ft
1500m to 5 km
500 to 1000 ft
800 to 1500m
200 to 500 ft
< 800m
< 200 ft
Symbols :   Thunderstorms  Fog  Heavy snow  Heavy precipitations  Wind > 20 kt
SIGMETs :     Misc.  Thunderstorms  Icing  Turbulence  Mountain Waves  Volcanic Ashes






- Airport Elevation : 245 ft
- IATA code : BIQ


LFBZ - Biarritz

CURRENT METAR :
  • 092100Z AUTO 31007KT 9999 FEW040 OVC060 12/09 Q1032 TEMPO 30020G35KT 4000 RA BKN014 BKN025TCU

EXPIRED METARs :
  • 092030Z AUTO 33011KT 300V360 9999 -RA SCT031 BKN039 BKN048 12/08 Q1031 TEMPO 30020G35KT 4000 RA BKN014 BKN025TCU
  • 092000Z AUTO 32010KT 300V360 9999 SCT034 BKN042 BKN058 12/07 Q1031 TEMPO 30020G35KT 4000 RA BKN014 BKN025TCU
  • 091930Z AUTO 31011KT 290V350 9999 FEW034/// BKN056/// BKN120/// ///TCU 12/07 Q1031 TEMPO 30020G35KT 4000 RA BKN014 BKN025TCU
  • 091900Z AUTO 31013KT 9999 FEW023/// BKN031/// BKN050/// ///TCU 12/08 Q1031 TEMPO 30020G35KT 4000 RA BKN014 BKN025TCU
  • 091830Z AUTO 31012KT 280V340 9999 BKN021/// BKN026/// BKN034/// ///TCU 12/09 Q1030 TEMPO 30020G35KT 4000 RA BKN014 BKN025TCU

TAF TAF LFBZ
Valid from the 09 at 18:00 until the 10 at 18:00 UTC


091700Z 0918/1018 30015G25KT 9999 SCT030TCU BKN060
PROB40
TEMPO 0918/0924 30020G35KT 4000 RA BKN014 BKN025TCU
BECMG 1000/1002 31010KT NSC
BECMG 1003/1005 VRB02KT
PROB40 1005/1007 4000 BR
FM100900 14005KT CAVOK



MET'MAP, your aeronautical weather chart ! - Copyright ORBIFLY December 2007 - Disclaimer

ORBIFLY MET'MAP TEAM :

Programming & Development : Alexandra Zaïnal
Concept & original design : Baudouin d'Aumeries
Assistance for programming : Marc-Olivier Méhu
Technical & hardware support : Manuel Goepfert

Contact : metmap@orbifly.com




SOURCES & CREDITS :

   NOAA